createdAt,value
2022-12-28T00:01:11.650Z,37.56
2022-12-28T00:03:38.259Z,37.61
2022-12-28T00:06:05.854Z,37.55
2022-12-28T00:08:32.578Z,37.45
2022-12-28T00:11:12.164Z,37.67
2022-12-28T00:13:45.726Z,37.49
2022-12-28T00:16:29.056Z,37.48
2022-12-28T00:18:58.073Z,37.24
2022-12-28T00:21:25.313Z,37.13
2022-12-28T00:23:52.982Z,37.37
2022-12-28T00:26:20.182Z,37.03
2022-12-28T00:28:47.926Z,36.71
2022-12-28T00:31:15.695Z,36.99
2022-12-28T00:33:42.805Z,37.04
2022-12-28T00:36:13.747Z,37.06
2022-12-28T00:38:42.204Z,36.96
2022-12-28T00:41:09.802Z,36.94
2022-12-28T00:43:36.910Z,36.98
2022-12-28T00:46:04.210Z,37.02
2022-12-28T00:48:31.877Z,37.25
2022-12-28T00:51:08.378Z,37.16
2022-12-28T00:53:35.398Z,36.82
2022-12-28T00:56:18.976Z,36.70
2022-12-28T00:58:48.737Z,36.62
2022-12-28T01:01:19.039Z,36.65
2022-12-28T01:03:46.385Z,36.60
2022-12-28T01:06:15.159Z,36.56
2022-12-28T01:08:42.615Z,36.36
2022-12-28T01:11:23.820Z,36.22
2022-12-28T01:13:52.683Z,35.90
2022-12-28T01:16:28.460Z,35.88
2022-12-28T01:18:57.809Z,35.88
2022-12-28T01:21:27.530Z,35.93
2022-12-28T01:23:56.188Z,35.54
2022-12-28T01:26:23.196Z,35.68
2022-12-28T01:28:50.272Z,35.64
2022-12-28T01:31:18.103Z,35.21
2022-12-28T01:33:45.090Z,35.59
2022-12-28T01:36:20.356Z,35.17
2022-12-28T01:38:48.266Z,35.25
2022-12-28T01:41:17.487Z,35.17
2022-12-28T01:43:48.393Z,35.19
2022-12-28T01:46:22.470Z,35.42
2022-12-28T01:49:10.637Z,35.09
2022-12-28T01:52:04.218Z,35.37
2022-12-28T01:54:39.395Z,35.38
2022-12-28T01:57:06.073Z,35.15
2022-12-28T01:59:37.323Z,35.08
2022-12-28T02:02:04.293Z,35.21
2022-12-28T02:04:31.140Z,35.34
2022-12-28T02:06:57.904Z,35.20
2022-12-28T02:09:33.669Z,35.25
2022-12-28T02:12:00.917Z,35.32
2022-12-28T02:14:27.875Z,35.18
2022-12-28T02:16:55.210Z,35.11
2022-12-28T02:19:33.041Z,35.20
2022-12-28T02:22:21.173Z,34.87
2022-12-28T02:25:13.985Z,34.97
2022-12-28T02:27:59.281Z,35.00
2022-12-28T02:30:25.942Z,35.22
2022-12-28T02:33:13.315Z,35.06
2022-12-28T02:35:54.263Z,35.06
2022-12-28T02:38:33.012Z,34.86
2022-12-28T02:41:03.835Z,34.88
2022-12-28T02:43:32.557Z,34.93
2022-12-28T02:46:35.139Z,34.72
2022-12-28T02:49:37.722Z,34.80
2022-12-28T02:52:25.270Z,34.70
2022-12-28T02:55:27.292Z,34.72
2022-12-28T02:58:13.361Z,34.81
2022-12-28T03:00:55.366Z,34.83
2022-12-28T03:03:45.974Z,34.88
2022-12-28T03:06:56.844Z,34.77
2022-12-28T03:09:38.016Z,34.71
2022-12-28T03:12:15.732Z,34.54
2022-12-28T03:14:54.094Z,34.50
2022-12-28T03:17:44.132Z,34.39
2022-12-28T03:20:40.101Z,34.71
2022-12-28T03:23:28.978Z,34.51
2022-12-28T03:26:17.636Z,34.51
2022-12-28T03:29:08.261Z,34.62
2022-12-28T03:31:38.890Z,34.19
2022-12-28T03:34:10.587Z,34.52
2022-12-28T03:37:10.532Z,34.26
2022-12-28T03:39:51.968Z,34.28
2022-12-28T03:42:52.655Z,34.18
2022-12-28T03:45:45.323Z,34.44
2022-12-28T03:48:15.936Z,34.06
2022-12-28T03:50:46.817Z,34.26
2022-12-28T03:53:23.034Z,34.21
2022-12-28T03:55:52.470Z,34.36
2022-12-28T03:58:21.856Z,34.22
2022-12-28T04:00:49.656Z,34.37
2022-12-28T04:03:17.350Z,34.04
2022-12-28T04:08:01.281Z,34.00
2022-12-28T04:10:28.263Z,34.14
2022-12-28T04:12:56.673Z,34.00
2022-12-28T04:15:37.945Z,34.16
2022-12-28T04:18:04.770Z,34.15
2022-12-28T04:20:32.044Z,33.72
2022-12-28T04:22:58.740Z,33.87
2022-12-28T04:25:26.299Z,33.98
2022-12-28T04:30:16.107Z,33.69
2022-12-28T04:32:42.752Z,33.75
2022-12-28T04:35:09.525Z,33.88
2022-12-28T04:37:44.311Z,33.80
2022-12-28T04:40:11.321Z,33.92
2022-12-28T04:42:37.812Z,34.05
2022-12-28T04:45:05.565Z,33.98
2022-12-28T04:47:32.054Z,33.79
2022-12-28T04:49:58.701Z,33.88
2022-12-28T04:52:25.362Z,33.96
2022-12-28T04:54:52.149Z,34.39
2022-12-28T04:57:18.662Z,34.16
2022-12-28T04:59:45.286Z,34.20
2022-12-28T05:02:11.984Z,34.34
2022-12-28T05:04:38.627Z,34.65
2022-12-28T05:07:05.147Z,34.61
2022-12-28T05:09:31.876Z,34.68
2022-12-28T05:11:58.360Z,34.62
2022-12-28T05:14:24.947Z,34.23
2022-12-28T05:16:52.166Z,34.33
2022-12-28T05:19:18.773Z,34.31
2022-12-28T05:21:45.325Z,34.36
2022-12-28T05:24:12.021Z,34.21
2022-12-28T05:26:38.560Z,34.36
2022-12-28T05:29:05.347Z,34.10
2022-12-28T05:31:31.911Z,34.14
2022-12-28T05:33:58.642Z,34.17
2022-12-28T05:36:26.945Z,34.22
2022-12-28T05:38:54.827Z,34.29
2022-12-28T05:41:24.353Z,34.04
2022-12-28T05:43:51.965Z,34.06
2022-12-28T05:46:22.032Z,34.34
2022-12-28T05:48:48.933Z,34.02
2022-12-28T05:51:18.308Z,34.09
2022-12-28T05:53:44.898Z,33.80
2022-12-28T05:56:20.961Z,34.03
2022-12-28T05:58:53.624Z,33.87
2022-12-28T06:01:23.003Z,33.89
2022-12-28T06:03:53.946Z,34.00
2022-12-28T06:06:21.231Z,33.60
2022-12-28T06:08:48.910Z,33.93
2022-12-28T06:13:36.205Z,33.55
2022-12-28T06:16:15.219Z,33.89
2022-12-28T06:18:42.383Z,33.46
2022-12-28T06:21:13.081Z,33.64
2022-12-28T06:23:40.385Z,33.55
2022-12-28T06:26:08.224Z,33.43
2022-12-28T06:28:38.227Z,33.66
2022-12-28T06:31:11.631Z,33.84
2022-12-28T06:33:38.696Z,33.51
2022-12-28T06:36:14.719Z,33.65
2022-12-28T06:38:46.846Z,33.60
2022-12-28T06:41:15.319Z,33.40
2022-12-28T06:43:43.495Z,33.66
2022-12-28T06:46:11.622Z,33.50
2022-12-28T06:48:39.277Z,33.34
2022-12-28T06:51:13.805Z,33.36
2022-12-28T06:53:40.797Z,33.61
2022-12-28T06:56:32.834Z,33.49
2022-12-28T06:59:03.771Z,33.28
2022-12-28T07:01:38.182Z,33.32
2022-12-28T07:04:06.797Z,33.58
2022-12-28T07:06:42.312Z,33.58
2022-12-28T07:09:13.711Z,33.58
2022-12-28T07:11:41.073Z,33.58
2022-12-28T07:14:07.620Z,33.47
2022-12-28T07:19:03.544Z,33.58
2022-12-28T07:21:36.207Z,33.64
2022-12-28T07:24:04.553Z,33.79
2022-12-28T07:26:34.490Z,33.44
2022-12-28T07:29:02.939Z,33.69
2022-12-28T07:31:35.742Z,33.87
2022-12-28T07:34:05.065Z,33.76
2022-12-28T07:36:32.960Z,33.50
2022-12-28T07:39:00.348Z,33.78
2022-12-28T07:41:29.753Z,33.47
2022-12-28T07:43:59.544Z,33.58
2022-12-28T07:46:31.154Z,33.72
2022-12-28T07:49:01.250Z,33.64
2022-12-28T07:51:33.146Z,33.42
2022-12-28T07:54:00.433Z,33.82
2022-12-28T07:56:29.167Z,33.47
2022-12-28T07:58:58.703Z,33.79
2022-12-28T08:01:27.883Z,33.84
2022-12-28T08:03:57.857Z,34.06
2022-12-28T08:06:26.005Z,34.69
2022-12-28T08:08:55.289Z,35.40
2022-12-28T08:11:27.513Z,36.06
2022-12-28T08:13:54.950Z,36.50
2022-12-28T08:16:24.342Z,36.32
2022-12-28T08:18:51.042Z,36.85
2022-12-28T08:21:24.535Z,36.95
2022-12-28T08:23:51.908Z,37.10
2022-12-28T08:26:22.498Z,37.46
2022-12-28T08:28:50.920Z,37.36
2022-12-28T08:31:21.094Z,37.81
2022-12-28T08:33:48.239Z,37.68
2022-12-28T08:36:14.922Z,37.43
2022-12-28T08:38:43.118Z,36.94
2022-12-28T08:41:13.539Z,37.12
2022-12-28T08:43:40.512Z,36.76
2022-12-28T08:46:13.353Z,36.82
2022-12-28T08:48:41.464Z,36.42
2022-12-28T08:51:12.475Z,36.10
2022-12-28T08:53:40.646Z,35.99
2022-12-28T08:56:12.829Z,36.21
2022-12-28T08:58:40.361Z,36.38
2022-12-28T09:01:21.913Z,36.62
2022-12-28T09:03:51.400Z,36.78
2022-12-28T09:06:21.492Z,36.92
2022-12-28T09:09:08.110Z,37.08
2022-12-28T09:11:36.473Z,37.30
2022-12-28T09:14:05.079Z,36.68
2022-12-28T09:16:31.703Z,36.75
2022-12-28T09:19:00.108Z,36.16
2022-12-28T09:21:29.865Z,36.15
2022-12-28T09:23:57.027Z,36.14
2022-12-28T09:26:29.176Z,35.89
2022-12-28T09:28:57.926Z,35.61
2022-12-28T09:31:27.546Z,36.04
2022-12-28T09:36:47.862Z,36.60
2022-12-28T09:39:18.194Z,36.47
2022-12-28T09:42:03.488Z,37.05
2022-12-28T09:44:39.971Z,36.93
2022-12-28T09:47:21.562Z,37.53
2022-12-28T09:50:13.314Z,37.59
2022-12-28T09:53:06.565Z,37.89
2022-12-28T09:55:35.255Z,37.85
2022-12-28T09:58:04.149Z,38.27
2022-12-28T10:00:45.298Z,38.36
2022-12-28T10:03:18.746Z,38.44
2022-12-28T10:05:45.991Z,38.55
2022-12-28T10:08:17.286Z,38.66
2022-12-28T10:10:48.627Z,38.69
2022-12-28T10:13:53.418Z,38.97
2022-12-28T10:16:20.404Z,39.06
2022-12-28T10:18:48.510Z,38.96
2022-12-28T10:21:18.491Z,38.80
2022-12-28T10:24:20.922Z,39.10
2022-12-28T10:26:35.291Z,39.17
2022-12-28T10:29:01.882Z,38.95
2022-12-28T10:31:38.514Z,38.92
2022-12-28T10:34:22.776Z,38.67
2022-12-28T10:36:50.692Z,38.70
2022-12-28T10:39:28.868Z,38.23
2022-12-28T10:41:58.184Z,38.23
2022-12-28T10:44:39.268Z,38.19
2022-12-28T10:47:18.203Z,38.58
2022-12-28T10:50:10.514Z,38.34
2022-12-28T10:52:39.631Z,38.63
2022-12-28T10:55:30.773Z,38.61
2022-12-28T10:58:29.178Z,38.87
2022-12-28T11:01:10.722Z,38.80
2022-12-28T11:03:40.035Z,39.06
2022-12-28T11:06:13.111Z,39.32
2022-12-28T11:08:41.606Z,39.56
2022-12-28T11:11:18.125Z,39.55
2022-12-28T11:13:53.460Z,39.63
2022-12-28T11:16:21.166Z,39.69
2022-12-28T11:18:47.958Z,39.94
2022-12-28T11:21:20.047Z,39.88
2022-12-28T11:23:49.228Z,40.11
2022-12-28T11:26:18.229Z,40.16
2022-12-28T11:28:48.301Z,40.46
2022-12-28T11:31:28.107Z,40.56
2022-12-28T11:33:58.883Z,40.76
2022-12-28T11:36:27.438Z,40.95
2022-12-28T11:38:56.390Z,40.81
2022-12-28T11:41:31.979Z,40.83
2022-12-28T11:44:04.484Z,40.94
2022-12-28T11:46:31.113Z,40.46
2022-12-28T11:49:03.831Z,39.81
2022-12-28T11:51:35.511Z,39.37
2022-12-28T11:54:38.672Z,38.27
2022-12-28T11:57:07.674Z,38.26
2022-12-28T11:59:35.768Z,37.57
2022-12-28T12:02:28.745Z,37.03
2022-12-28T12:04:55.340Z,36.44
2022-12-28T12:07:31.178Z,36.09
2022-12-28T12:10:44.545Z,35.48
2022-12-28T12:13:26.419Z,35.24
2022-12-28T12:16:06.923Z,35.07
2022-12-28T12:18:52.237Z,34.71
2022-12-28T12:21:39.655Z,34.49
2022-12-28T12:24:30.586Z,34.26
2022-12-28T12:27:13.476Z,34.33
2022-12-28T12:29:45.299Z,33.91
2022-12-28T12:34:55.216Z,34.04
2022-12-28T12:37:37.447Z,33.62
2022-12-28T12:40:10.130Z,33.93
2022-12-28T12:42:36.686Z,33.65
2022-12-28T12:45:36.291Z,33.58
2022-12-28T12:48:22.867Z,33.51
2022-12-28T12:50:59.192Z,33.17
2022-12-28T12:53:28.800Z,33.45
2022-12-28T12:56:30.648Z,33.18
2022-12-28T12:59:24.711Z,33.24
2022-12-28T13:02:40.148Z,33.38
2022-12-28T13:05:11.949Z,33.07
2022-12-28T13:07:40.045Z,33.16
2022-12-28T13:10:14.034Z,32.95
2022-12-28T13:12:41.114Z,32.94
2022-12-28T13:15:15.076Z,33.19
2022-12-28T13:18:42.976Z,33.12
2022-12-28T13:20:57.585Z,33.13
2022-12-28T13:23:26.497Z,33.28
2022-12-28T13:25:56.285Z,33.06
2022-12-28T13:28:28.691Z,33.02
2022-12-28T13:31:18.272Z,33.05
2022-12-28T13:34:15.703Z,33.10
2022-12-28T13:36:58.455Z,34.10
2022-12-28T13:39:30.468Z,34.19
2022-12-28T13:42:00.426Z,34.45
2022-12-28T13:44:36.236Z,34.56
2022-12-28T13:47:05.200Z,34.79
2022-12-28T13:49:36.938Z,34.45
2022-12-28T13:52:08.591Z,34.29
2022-12-28T13:54:38.844Z,34.13
2022-12-28T13:57:36.464Z,34.20
2022-12-28T13:59:55.737Z,34.21
2022-12-28T14:02:23.896Z,34.23
2022-12-28T14:04:54.068Z,34.17
2022-12-28T14:07:24.147Z,33.91
2022-12-28T14:09:51.650Z,34.23
2022-12-28T14:12:18.919Z,34.25
2022-12-28T14:14:47.892Z,34.16
2022-12-28T14:17:15.389Z,34.43
2022-12-28T14:19:42.970Z,34.27
2022-12-28T14:22:35.834Z,34.54
2022-12-28T14:25:22.412Z,34.59
2022-12-28T14:27:58.466Z,34.87
2022-12-28T14:30:27.832Z,34.67
2022-12-28T14:35:22.703Z,34.62
2022-12-28T14:37:56.921Z,34.95
2022-12-28T14:40:31.175Z,34.65
2022-12-28T14:43:03.067Z,34.71
2022-12-28T14:45:36.321Z,34.90
2022-12-28T14:48:32.731Z,34.83
2022-12-28T14:51:03.347Z,34.69
2022-12-28T14:53:31.271Z,34.81
2022-12-28T14:56:11.406Z,34.94
2022-12-28T14:58:54.750Z,34.86
2022-12-28T15:01:22.562Z,34.69
2022-12-28T15:04:05.369Z,34.60
2022-12-28T15:06:32.689Z,34.48
2022-12-28T15:08:59.930Z,34.71
2022-12-28T15:11:28.984Z,34.59
2022-12-28T15:13:57.436Z,34.83
2022-12-28T15:16:24.210Z,34.72
2022-12-28T15:18:50.873Z,34.72
2022-12-28T15:21:20.313Z,34.75
2022-12-28T15:23:53.995Z,34.44
2022-12-28T15:26:23.427Z,34.40
2022-12-28T15:28:50.541Z,34.24
2022-12-28T15:31:20.022Z,33.90
2022-12-28T15:36:24.931Z,34.62
2022-12-28T15:38:51.546Z,34.58
2022-12-28T15:43:36.347Z,34.40
2022-12-28T15:46:02.937Z,34.60
2022-12-28T15:48:32.566Z,34.34
2022-12-28T15:50:59.165Z,34.61
2022-12-28T15:53:25.727Z,34.20
2022-12-28T15:56:20.400Z,34.01
2022-12-28T15:58:47.058Z,33.96
2022-12-28T16:01:16.468Z,33.95
2022-12-28T16:03:43.212Z,33.85
2022-12-28T16:06:09.834Z,33.44
2022-12-28T16:08:37.763Z,33.27
2022-12-28T16:11:12.605Z,32.97
2022-12-28T16:13:39.459Z,32.78
2022-12-28T16:16:07.800Z,32.80
2022-12-28T16:18:34.933Z,32.86
2022-12-28T16:21:03.063Z,33.00
2022-12-28T16:23:32.022Z,32.73
2022-12-28T16:25:59.938Z,32.97
2022-12-28T16:28:27.324Z,33.16
2022-12-28T16:30:54.578Z,33.30
2022-12-28T16:33:22.002Z,33.32
2022-12-28T16:35:50.839Z,33.27
2022-12-28T16:38:22.999Z,33.28
2022-12-28T16:40:49.853Z,33.02
2022-12-28T16:43:19.280Z,33.07
2022-12-28T16:45:45.955Z,33.03
2022-12-28T16:48:15.105Z,32.95
2022-12-28T16:50:42.294Z,33.04
2022-12-28T16:53:09.235Z,33.14
2022-12-28T16:55:42.906Z,33.32
2022-12-28T16:58:09.951Z,33.27
2022-12-28T17:00:39.408Z,33.57
2022-12-28T17:03:06.114Z,33.40
2022-12-28T17:05:34.661Z,33.76
2022-12-28T17:08:02.182Z,33.60
2022-12-28T17:10:29.129Z,33.47
2022-12-28T17:12:55.787Z,33.93
2022-12-28T17:15:25.905Z,34.08
2022-12-28T17:17:52.518Z,34.01
2022-12-28T17:20:19.218Z,34.51
2022-12-28T17:22:45.842Z,34.21
2022-12-28T17:25:12.546Z,34.67
2022-12-28T17:27:39.197Z,34.93
2022-12-28T17:30:06.049Z,34.93
2022-12-28T17:32:33.400Z,34.51
2022-12-28T17:35:00.178Z,35.01
2022-12-28T17:37:26.859Z,35.20
2022-12-28T17:39:53.431Z,35.42
2022-12-28T17:42:20.102Z,35.33
2022-12-28T17:44:48.382Z,35.39
2022-12-28T17:47:15.195Z,35.25
2022-12-28T17:49:42.035Z,35.64
2022-12-28T17:52:08.620Z,35.69
2022-12-28T17:54:35.208Z,35.71
2022-12-28T17:57:01.970Z,35.76
2022-12-28T17:59:28.529Z,35.76
2022-12-28T18:01:55.657Z,36.69
2022-12-28T18:04:22.307Z,37.47
2022-12-28T18:06:48.962Z,37.60
2022-12-28T18:09:15.786Z,37.29
2022-12-28T18:11:42.351Z,37.30
2022-12-28T18:14:12.850Z,37.16
2022-12-28T18:16:39.892Z,37.03
2022-12-28T18:19:06.507Z,36.79
2022-12-28T18:21:33.163Z,36.91
2022-12-28T18:23:59.659Z,36.66
2022-12-28T18:26:27.013Z,36.55
2022-12-28T18:28:57.641Z,36.61
2022-12-28T18:31:25.258Z,36.37
2022-12-28T18:33:52.342Z,36.39
2022-12-28T18:36:22.176Z,35.89
2022-12-28T18:38:49.579Z,36.12
2022-12-28T18:41:20.605Z,35.96
2022-12-28T18:43:47.742Z,35.88
2022-12-28T18:46:14.725Z,35.80
2022-12-28T18:48:42.712Z,35.41
2022-12-28T18:51:16.897Z,35.26
2022-12-28T18:53:43.976Z,35.11
2022-12-28T18:56:14.081Z,34.64
2022-12-28T18:58:42.294Z,34.49
2022-12-28T19:01:39.701Z,34.56
2022-12-28T19:04:01.110Z,34.40
2022-12-28T19:06:29.125Z,34.86
2022-12-28T19:09:02.187Z,34.96
2022-12-28T19:11:29.251Z,34.82
2022-12-28T19:13:58.076Z,34.56
2022-12-28T19:16:31.046Z,34.51
2022-12-28T19:19:03.970Z,34.17
2022-12-28T19:21:38.366Z,34.09
2022-12-28T19:24:17.339Z,33.68
2022-12-28T19:26:45.614Z,33.57
2022-12-28T19:29:13.294Z,33.61
2022-12-28T19:31:43.000Z,33.32
2022-12-28T19:34:09.984Z,33.41
2022-12-28T19:36:36.723Z,32.98
2022-12-28T19:39:13.417Z,32.94
2022-12-28T19:41:43.180Z,33.07
2022-12-28T19:44:13.023Z,33.24
2022-12-28T19:46:47.504Z,33.04
2022-12-28T19:49:20.515Z,33.00
2022-12-28T19:51:57.326Z,32.71
2022-12-28T19:54:26.595Z,33.04
2022-12-28T19:56:56.119Z,33.04
2022-12-28T19:59:24.423Z,32.75
2022-12-28T20:02:03.616Z,32.69
2022-12-28T20:04:35.583Z,32.56
2022-12-28T20:07:02.594Z,32.72
2022-12-28T20:09:29.331Z,32.81
2022-12-28T20:11:56.509Z,32.91
2022-12-28T20:14:26.068Z,32.83
2022-12-28T20:16:53.311Z,32.79
2022-12-28T20:19:22.620Z,32.89
2022-12-28T20:21:49.675Z,33.10
2022-12-28T20:24:21.834Z,32.96
2022-12-28T20:26:48.605Z,32.91
2022-12-28T20:29:17.044Z,32.91
2022-12-28T20:31:44.538Z,32.99
2022-12-28T20:34:11.738Z,33.12
2022-12-28T20:36:41.623Z,32.95
2022-12-28T20:39:08.429Z,33.26
2022-12-28T20:41:56.809Z,33.25
2022-12-28T20:44:26.481Z,33.22
2022-12-28T20:46:54.444Z,33.05
2022-12-28T20:49:23.071Z,33.04
2022-12-28T20:51:51.296Z,32.85
2022-12-28T20:54:19.757Z,33.12
2022-12-28T20:56:53.971Z,32.87
2022-12-28T20:59:26.006Z,33.17
2022-12-28T21:01:55.107Z,32.80
2022-12-28T21:04:24.476Z,32.96
2022-12-28T21:06:52.844Z,32.86
2022-12-28T21:09:19.872Z,33.15
2022-12-28T21:11:46.743Z,32.88
2022-12-28T21:14:13.825Z,33.14
2022-12-28T21:16:40.562Z,33.06
2022-12-28T21:19:07.116Z,32.77
2022-12-28T21:21:33.795Z,32.91
2022-12-28T21:24:02.703Z,32.83
2022-12-28T21:26:29.395Z,33.00
2022-12-28T21:28:55.922Z,33.22
2022-12-28T21:31:23.117Z,32.99
2022-12-28T21:33:49.678Z,33.24
2022-12-28T21:36:19.099Z,33.49
2022-12-28T21:38:48.192Z,33.56
2022-12-28T21:41:37.755Z,33.24
2022-12-28T21:44:06.816Z,33.17
2022-12-28T21:46:34.315Z,33.33
2022-12-28T21:49:03.398Z,33.32
2022-12-28T21:51:35.368Z,33.00
2022-12-28T21:54:13.578Z,33.27
2022-12-28T21:56:41.955Z,33.23
2022-12-28T21:59:09.403Z,33.32
2022-12-28T22:04:24.854Z,33.48
2022-12-28T22:06:51.445Z,33.76
2022-12-28T22:09:36.491Z,34.09
2022-12-28T22:12:21.783Z,33.95
2022-12-28T22:14:48.421Z,34.11
2022-12-28T22:17:15.022Z,34.22
2022-12-28T22:19:41.710Z,34.34
2022-12-28T22:22:08.323Z,34.38
2022-12-28T22:24:34.915Z,34.09
2022-12-28T22:27:01.450Z,34.31
2022-12-28T22:29:28.100Z,34.26
2022-12-28T22:31:54.659Z,34.28
2022-12-28T22:34:21.297Z,34.63
2022-12-28T22:36:47.899Z,34.36
2022-12-28T22:39:14.569Z,34.34
2022-12-28T22:41:41.109Z,34.17
2022-12-28T22:44:09.884Z,34.14
2022-12-28T22:46:39.498Z,34.09
2022-12-28T22:49:06.216Z,34.26
2022-12-28T22:53:45.061Z,34.18
2022-12-28T22:56:19.944Z,34.50
2022-12-28T22:58:48.068Z,34.37
2022-12-28T23:01:17.783Z,34.49
2022-12-28T23:03:45.974Z,34.29
2022-12-28T23:06:14.792Z,34.49
2022-12-28T23:08:41.711Z,34.77
2022-12-28T23:11:31.488Z,34.37
2022-12-28T23:14:20.929Z,34.60
2022-12-28T23:16:48.991Z,34.66
2022-12-28T23:19:34.950Z,34.77
2022-12-28T23:22:22.856Z,34.52
2022-12-28T23:25:15.542Z,34.77
2022-12-28T23:27:44.431Z,34.50
2022-12-28T23:30:19.895Z,34.57
2022-12-28T23:32:48.018Z,34.49
2022-12-28T23:35:16.620Z,34.85
2022-12-28T23:37:43.174Z,34.55
2022-12-28T23:40:12.244Z,34.61
2022-12-28T23:42:40.757Z,34.41
2022-12-28T23:45:09.480Z,34.40
2022-12-28T23:47:36.833Z,34.47
2022-12-28T23:50:04.274Z,34.37
2022-12-28T23:52:31.336Z,34.70
2022-12-28T23:54:57.915Z,34.51
2022-12-28T23:57:24.703Z,34.71
2022-12-28T23:59:51.420Z,34.62
